createdAt,value
2022-08-24T00:00:00.946Z,41.80
2022-08-24T00:02:29.481Z,41.70
2022-08-24T00:04:56.440Z,41.70
2022-08-24T00:07:27.311Z,41.80
2022-08-24T00:09:55.575Z,41.60
2022-08-24T00:12:22.494Z,41.70
2022-08-24T00:14:49.604Z,41.60
2022-08-24T00:17:17.071Z,41.50
2022-08-24T00:19:44.354Z,41.60
2022-08-24T00:22:11.313Z,41.70
2022-08-24T00:24:38.303Z,41.80
2022-08-24T00:27:06.892Z,41.90
2022-08-24T00:29:34.114Z,41.80
2022-08-24T00:32:01.369Z,41.70
2022-08-24T00:34:30.134Z,41.70
2022-08-24T00:36:56.985Z,41.60
2022-08-24T00:39:23.944Z,41.60
2022-08-24T00:41:51.838Z,41.50
2022-08-24T00:44:19.474Z,41.60
2022-08-24T00:46:58.325Z,41.60
2022-08-24T00:49:48.806Z,41.60
2022-08-24T00:52:15.733Z,41.60
2022-08-24T00:54:46.624Z,41.60
2022-08-24T00:57:15.450Z,41.70
2022-08-24T00:59:43.947Z,41.70
2022-08-24T01:02:15.757Z,41.70
2022-08-24T01:04:46.206Z,41.50
2022-08-24T01:07:13.297Z,41.50
2022-08-24T01:09:40.193Z,41.60
2022-08-24T01:12:07.208Z,41.70
2022-08-24T01:14:34.255Z,41.60
2022-08-24T01:17:19.873Z,41.60
2022-08-24T01:19:49.126Z,41.50
2022-08-24T01:22:34.659Z,41.40
2022-08-24T01:25:01.667Z,41.30
2022-08-24T01:27:29.108Z,41.40
2022-08-24T01:29:57.673Z,41.50
2022-08-24T01:32:25.176Z,41.60
2022-08-24T01:34:52.052Z,41.60
2022-08-24T01:37:18.953Z,41.70
2022-08-24T01:39:47.287Z,41.80
2022-08-24T01:42:14.600Z,41.90
2022-08-24T01:44:44.726Z,41.60
2022-08-24T01:47:13.964Z,41.50
2022-08-24T01:49:45.071Z,41.60
2022-08-24T01:52:13.664Z,41.70
2022-08-24T01:54:43.533Z,41.70
2022-08-24T01:57:10.823Z,41.80
2022-08-24T01:59:42.953Z,41.80
2022-08-24T02:02:13.188Z,41.80
2022-08-24T02:04:40.077Z,41.80
2022-08-24T02:07:11.145Z,41.80
2022-08-24T02:09:38.986Z,41.80
2022-08-24T02:12:06.732Z,41.80
2022-08-24T02:14:34.236Z,41.80
2022-08-24T02:17:02.734Z,41.80
2022-08-24T02:19:29.680Z,41.80
2022-08-24T02:21:56.553Z,41.80
2022-08-24T02:24:23.766Z,41.90
2022-08-24T02:26:50.823Z,41.90
2022-08-24T02:29:17.861Z,41.70
2022-08-24T02:31:45.049Z,41.70
2022-08-24T02:34:12.463Z,41.50
2022-08-24T02:36:39.620Z,41.60
2022-08-24T02:39:06.970Z,41.60
2022-08-24T02:41:34.794Z,41.60
2022-08-24T02:44:01.705Z,41.60
2022-08-24T02:46:29.915Z,41.50
2022-08-24T02:49:10.904Z,41.50
2022-08-24T02:51:44.610Z,41.60
2022-08-24T02:54:13.289Z,41.50
2022-08-24T02:56:40.149Z,41.40
2022-08-24T02:59:07.268Z,41.30
2022-08-24T03:01:34.384Z,41.30
2022-08-24T03:04:01.666Z,41.40
2022-08-24T03:06:28.560Z,41.60
2022-08-24T03:08:57.149Z,41.60
2022-08-24T03:11:28.102Z,41.60
2022-08-24T03:13:56.620Z,41.60
2022-08-24T03:16:23.487Z,41.50
2022-08-24T03:18:50.322Z,41.20
2022-08-24T03:21:18.518Z,41.20
2022-08-24T03:23:45.446Z,41.10
2022-08-24T03:26:13.020Z,41.30
2022-08-24T03:28:40.340Z,41.20
2022-08-24T03:31:07.576Z,41.20
2022-08-24T03:33:34.561Z,41.30
2022-08-24T03:36:01.434Z,41.30
2022-08-24T03:38:28.535Z,41.50
2022-08-24T03:40:55.796Z,41.40
2022-08-24T03:43:41.324Z,41.40
2022-08-24T03:46:09.066Z,41.30
2022-08-24T03:48:36.479Z,41.30
2022-08-24T03:51:03.401Z,41.40
2022-08-24T03:53:30.286Z,41.40
2022-08-24T03:55:57.173Z,41.50
2022-08-24T03:58:24.090Z,41.60
2022-08-24T04:00:51.029Z,41.60
2022-08-24T04:03:17.946Z,41.60
2022-08-24T04:05:45.050Z,41.60
2022-08-24T04:08:12.263Z,41.70
2022-08-24T04:10:45.406Z,41.70
2022-08-24T04:13:12.535Z,41.70
2022-08-24T04:15:40.344Z,41.70
2022-08-24T04:18:07.233Z,41.60
2022-08-24T04:20:38.428Z,41.70
2022-08-24T04:23:05.897Z,41.70
2022-08-24T04:25:38.800Z,41.80
2022-08-24T04:28:06.119Z,41.70
2022-08-24T04:30:32.989Z,41.70
2022-08-24T04:33:00.009Z,41.80
2022-08-24T04:35:26.859Z,41.70
2022-08-24T04:37:53.706Z,41.70
2022-08-24T04:40:21.065Z,41.70
2022-08-24T04:42:48.477Z,41.60
2022-08-24T04:45:16.084Z,41.40
2022-08-24T04:47:44.652Z,41.60
2022-08-24T04:50:11.835Z,41.70
2022-08-24T04:52:38.723Z,41.90
2022-08-24T04:55:06.245Z,41.90
2022-08-24T04:57:34.639Z,41.90
2022-08-24T05:00:02.911Z,41.90
2022-08-24T05:02:29.829Z,41.90
2022-08-24T05:04:57.608Z,42.00
2022-08-24T05:07:25.804Z,42.20
2022-08-24T05:09:52.695Z,42.10
2022-08-24T05:12:20.998Z,42.10
2022-08-24T05:14:50.962Z,42.20
2022-08-24T05:17:17.870Z,42.30
2022-08-24T05:19:44.808Z,42.30
2022-08-24T05:22:11.654Z,42.40
2022-08-24T05:24:38.569Z,42.40
2022-08-24T05:27:05.500Z,42.40
2022-08-24T05:29:35.582Z,42.40
2022-08-24T05:32:03.057Z,42.60
2022-08-24T05:34:31.578Z,42.60
2022-08-24T05:36:58.448Z,42.80
2022-08-24T05:39:25.283Z,42.80
2022-08-24T05:41:52.154Z,42.90
2022-08-24T05:44:19.067Z,42.90
2022-08-24T05:46:46.125Z,42.90
2022-08-24T05:49:13.074Z,43.10
2022-08-24T05:51:40.439Z,43.20
2022-08-24T05:54:07.546Z,43.30
2022-08-24T05:56:34.503Z,43.40
2022-08-24T05:59:01.701Z,43.40
2022-08-24T06:01:28.794Z,43.40
2022-08-24T06:03:56.256Z,43.40
2022-08-24T06:06:24.095Z,43.40
2022-08-24T06:08:52.161Z,43.40
2022-08-24T06:11:30.251Z,43.30
2022-08-24T06:13:59.374Z,43.20
2022-08-24T06:16:26.415Z,43.30
2022-08-24T06:18:54.077Z,43.30
2022-08-24T06:21:22.969Z,43.20
2022-08-24T06:23:51.264Z,43.10
2022-08-24T06:26:38.525Z,43.20
2022-08-24T06:29:05.945Z,43.10
2022-08-24T06:31:39.894Z,42.90
2022-08-24T06:34:07.716Z,43.00
2022-08-24T06:36:34.652Z,43.10
2022-08-24T06:39:01.708Z,43.20
2022-08-24T06:41:28.612Z,43.20
2022-08-24T06:43:55.582Z,43.10
2022-08-24T06:46:25.642Z,43.10
2022-08-24T06:48:54.942Z,43.10
2022-08-24T06:51:25.465Z,43.10
2022-08-24T06:53:55.091Z,43.20
2022-08-24T06:56:21.955Z,43.40
2022-08-24T06:58:49.401Z,43.50
2022-08-24T07:01:20.623Z,43.50
2022-08-24T07:03:49.232Z,43.70
2022-08-24T07:06:16.178Z,43.70
2022-08-24T07:08:43.414Z,43.80
2022-08-24T07:11:10.978Z,43.50
2022-08-24T07:13:37.972Z,43.50
2022-08-24T07:16:05.290Z,43.50
2022-08-24T07:18:32.354Z,43.60
2022-08-24T07:21:03.693Z,43.60
2022-08-24T07:23:42.000Z,43.60
2022-08-24T07:26:11.308Z,43.50
2022-08-24T07:28:48.218Z,43.50
2022-08-24T07:31:15.920Z,43.50
2022-08-24T07:33:42.819Z,43.40
2022-08-24T07:36:16.983Z,43.30
2022-08-24T07:38:52.662Z,43.10
2022-08-24T07:44:07.666Z,42.90
2022-08-24T07:46:34.603Z,42.90
2022-08-24T07:49:11.356Z,43.00
2022-08-24T07:51:39.130Z,43.00
2022-08-24T07:54:13.412Z,42.80
2022-08-24T07:56:42.329Z,42.80
2022-08-24T07:59:12.973Z,43.10
2022-08-24T08:01:41.023Z,43.20
2022-08-24T08:04:08.823Z,43.20
2022-08-24T08:06:36.008Z,43.30
2022-08-24T08:09:05.114Z,43.30
2022-08-24T08:11:32.082Z,43.00
2022-08-24T08:13:59.085Z,43.10
2022-08-24T08:16:26.487Z,43.20
2022-08-24T08:19:09.319Z,42.90
2022-08-24T08:22:06.269Z,43.00
2022-08-24T08:24:33.519Z,42.90
2022-08-24T08:27:00.411Z,42.90
2022-08-24T08:29:27.967Z,43.00
2022-08-24T08:31:56.232Z,42.90
2022-08-24T08:34:23.600Z,42.80
2022-08-24T08:36:50.753Z,42.90
2022-08-24T08:39:18.743Z,42.80
2022-08-24T08:41:59.193Z,43.10
2022-08-24T08:44:44.098Z,42.90
2022-08-24T08:47:46.690Z,43.00
2022-08-24T08:50:13.731Z,42.80
2022-08-24T08:52:59.386Z,42.80
2022-08-24T08:55:38.869Z,43.10
2022-08-24T08:58:12.459Z,43.10
2022-08-24T09:00:42.952Z,43.20
2022-08-24T09:03:26.132Z,43.10
2022-08-24T09:05:59.088Z,43.40
2022-08-24T09:08:54.298Z,43.50
2022-08-24T09:11:32.607Z,43.40
2022-08-24T09:14:12.053Z,43.30
2022-08-24T09:16:39.275Z,43.00
2022-08-24T09:19:17.599Z,43.20
2022-08-24T09:22:00.028Z,43.40
2022-08-24T09:24:35.953Z,43.40
2022-08-24T09:27:02.809Z,43.70
2022-08-24T09:29:45.881Z,43.90
2022-08-24T09:32:30.816Z,43.80
2022-08-24T09:35:00.567Z,43.80
2022-08-24T09:37:27.429Z,43.60
2022-08-24T09:39:57.369Z,43.80
2022-08-24T09:42:43.094Z,43.90
2022-08-24T09:45:12.881Z,44.00
2022-08-24T09:48:01.160Z,44.00
2022-08-24T09:50:46.721Z,44.00
2022-08-24T09:53:16.779Z,44.00
2022-08-24T09:55:47.031Z,44.20
2022-08-24T09:58:23.240Z,44.30
2022-08-24T10:00:50.135Z,44.30
2022-08-24T10:03:20.801Z,44.60
2022-08-24T10:06:23.173Z,44.70
2022-08-24T10:08:53.401Z,44.90
2022-08-24T10:11:35.337Z,45.10
2022-08-24T10:14:20.769Z,45.10
2022-08-24T10:16:58.847Z,45.10
2022-08-24T10:19:44.346Z,45.20
2022-08-24T10:22:31.399Z,45.40
2022-08-24T10:25:11.098Z,45.30
2022-08-24T10:27:55.400Z,45.10
2022-08-24T10:30:28.339Z,45.00
2022-08-24T10:32:55.165Z,45.00
2022-08-24T10:35:38.746Z,44.80
2022-08-24T10:38:24.023Z,44.90
2022-08-24T10:40:57.174Z,44.70
2022-08-24T10:43:35.936Z,44.80
2022-08-24T10:46:12.112Z,44.90
2022-08-24T10:48:41.970Z,45.10
2022-08-24T10:51:12.346Z,45.10
2022-08-24T10:53:39.284Z,45.40
2022-08-24T10:56:14.321Z,45.60
2022-08-24T10:58:46.173Z,45.60
2022-08-24T11:01:24.622Z,45.70
2022-08-24T11:03:56.858Z,45.90
2022-08-24T11:06:25.558Z,45.90
2022-08-24T11:08:58.725Z,45.80
2022-08-24T11:11:27.698Z,45.90
2022-08-24T11:13:59.296Z,45.80
2022-08-24T11:16:28.114Z,45.70
2022-08-24T11:18:56.470Z,45.40
2022-08-24T11:21:34.783Z,45.30
2022-08-24T11:24:07.001Z,45.60
2022-08-24T11:26:45.600Z,45.80
2022-08-24T11:29:12.626Z,45.90
2022-08-24T11:31:41.021Z,46.00
2022-08-24T11:34:13.917Z,46.10
2022-08-24T11:36:41.323Z,46.00
2022-08-24T11:39:34.515Z,46.10
2022-08-24T11:42:01.358Z,45.90
2022-08-24T11:44:31.277Z,45.90
2022-08-24T11:47:19.714Z,45.90
2022-08-24T11:49:59.228Z,45.70
2022-08-24T11:52:26.261Z,45.80
2022-08-24T11:55:06.257Z,45.60
2022-08-24T11:57:33.495Z,45.70
2022-08-24T12:00:00.599Z,45.60
2022-08-24T12:02:34.033Z,45.80
2022-08-24T12:05:06.206Z,45.80
2022-08-24T12:07:45.369Z,46.20
2022-08-24T12:10:32.731Z,46.70
2022-08-24T12:12:59.926Z,46.90
2022-08-24T12:15:39.772Z,47.30
2022-08-24T12:18:15.671Z,47.50
2022-08-24T12:20:43.388Z,47.60
2022-08-24T12:23:31.056Z,47.70
2022-08-24T12:26:06.795Z,47.90
2022-08-24T12:28:54.762Z,47.60
2022-08-24T12:31:43.693Z,47.60
2022-08-24T12:34:30.857Z,47.60
2022-08-24T12:37:03.434Z,47.70
2022-08-24T12:39:44.914Z,47.70
2022-08-24T12:42:25.313Z,47.80
2022-08-24T12:44:57.257Z,47.50
2022-08-24T12:47:30.063Z,47.40
2022-08-24T12:50:01.680Z,47.00
2022-08-24T12:52:31.549Z,46.50
2022-08-24T12:55:07.292Z,45.90
2022-08-24T12:57:51.773Z,45.70
2022-08-24T13:00:25.099Z,45.50
2022-08-24T13:02:57.418Z,45.10
2022-08-24T13:05:25.212Z,45.20
2022-08-24T13:07:53.074Z,45.30
2022-08-24T13:10:25.691Z,45.20
2022-08-24T13:13:10.973Z,45.10
2022-08-24T13:15:37.959Z,45.20
2022-08-24T13:18:14.021Z,45.20
2022-08-24T13:20:44.365Z,45.40
2022-08-24T13:23:11.399Z,45.80
2022-08-24T13:25:38.911Z,46.10
2022-08-24T13:28:08.562Z,46.40
2022-08-24T13:30:38.772Z,46.70
2022-08-24T13:33:08.981Z,46.70
2022-08-24T13:35:35.885Z,46.90
2022-08-24T13:38:23.888Z,47.00
2022-08-24T13:40:53.953Z,47.20
2022-08-24T13:43:28.844Z,47.20
2022-08-24T13:45:59.529Z,47.00
2022-08-24T13:48:38.547Z,46.60
2022-08-24T13:51:26.179Z,46.40
2022-08-24T13:53:59.236Z,46.00
2022-08-24T13:56:44.418Z,45.90
2022-08-24T13:59:18.766Z,45.40
2022-08-24T14:02:07.911Z,45.20
2022-08-24T14:04:45.368Z,45.00
2022-08-24T14:07:12.197Z,44.90
2022-08-24T14:10:03.797Z,44.60
2022-08-24T14:12:30.952Z,44.70
2022-08-24T14:14:57.760Z,44.80
2022-08-24T14:17:49.333Z,44.80
2022-08-24T14:20:39.754Z,44.80
2022-08-24T14:23:21.555Z,44.40
2022-08-24T14:25:49.473Z,44.30
2022-08-24T14:28:34.175Z,44.40
2022-08-24T14:31:15.203Z,44.50
2022-08-24T14:34:11.966Z,44.50
2022-08-24T14:36:41.845Z,44.60
2022-08-24T14:39:12.630Z,44.30
2022-08-24T14:41:50.606Z,44.20
2022-08-24T14:44:21.954Z,44.10
2022-08-24T14:46:48.873Z,44.00
2022-08-24T14:49:39.399Z,44.10
2022-08-24T14:52:24.853Z,44.10
2022-08-24T14:54:57.849Z,44.20
2022-08-24T14:57:40.786Z,44.20
2022-08-24T15:00:16.829Z,44.30
2022-08-24T15:03:02.180Z,44.40
2022-08-24T15:05:30.075Z,44.50
2022-08-24T15:07:57.116Z,44.50
2022-08-24T15:10:39.636Z,44.70
2022-08-24T15:13:10.792Z,44.20
2022-08-24T15:15:58.133Z,44.20
2022-08-24T15:18:33.647Z,44.10
2022-08-24T15:21:09.946Z,44.50
2022-08-24T15:23:49.553Z,44.50
2022-08-24T15:26:22.760Z,44.50
2022-08-24T15:28:56.478Z,44.50
2022-08-24T15:31:25.937Z,44.70
2022-08-24T15:33:57.585Z,44.70
2022-08-24T15:36:25.373Z,44.70
2022-08-24T15:38:52.213Z,44.70
2022-08-24T15:41:23.662Z,44.60
2022-08-24T15:43:53.284Z,44.20
2022-08-24T15:46:22.013Z,44.40
2022-08-24T15:48:50.921Z,44.30
2022-08-24T15:51:31.733Z,44.20
2022-08-24T15:53:58.772Z,44.30
2022-08-24T15:56:28.002Z,44.20
2022-08-24T15:58:54.993Z,43.80
2022-08-24T16:01:46.664Z,43.90
2022-08-24T16:04:32.528Z,43.90
2022-08-24T16:06:59.572Z,44.00
2022-08-24T16:09:27.972Z,44.20
2022-08-24T16:12:00.988Z,44.10
2022-08-24T16:14:32.607Z,44.20
2022-08-24T16:17:04.497Z,44.40
2022-08-24T16:19:34.907Z,44.40
2022-08-24T16:22:03.751Z,43.90
2022-08-24T16:24:32.633Z,43.70
2022-08-24T16:27:02.705Z,43.40
2022-08-24T16:29:35.658Z,43.40
2022-08-24T16:32:29.738Z,43.30
2022-08-24T16:35:08.237Z,43.30
2022-08-24T16:37:35.371Z,43.20
2022-08-24T16:40:02.339Z,43.20
2022-08-24T16:42:30.375Z,43.20
2022-08-24T16:44:57.994Z,43.30
2022-08-24T16:47:25.767Z,43.30
2022-08-24T16:49:52.689Z,43.20
2022-08-24T16:52:19.749Z,43.20
2022-08-24T16:54:46.716Z,43.10
2022-08-24T16:57:16.673Z,43.20
2022-08-24T16:59:44.693Z,43.20
2022-08-24T17:02:12.928Z,43.10
2022-08-24T17:04:40.260Z,43.00
2022-08-24T17:07:08.727Z,43.00
2022-08-24T17:09:39.358Z,42.80
2022-08-24T17:12:06.537Z,42.70
2022-08-24T17:14:33.408Z,42.60
2022-08-24T17:17:00.447Z,42.70
2022-08-24T17:19:29.380Z,42.70
2022-08-24T17:21:57.916Z,42.80
2022-08-24T17:24:25.210Z,42.60
2022-08-24T17:26:53.643Z,42.50
2022-08-24T17:29:20.903Z,42.60
2022-08-24T17:31:50.082Z,42.40
2022-08-24T17:34:17.546Z,42.30
2022-08-24T17:36:45.087Z,42.30
2022-08-24T17:39:13.337Z,42.20
2022-08-24T17:41:40.520Z,42.10
2022-08-24T17:44:09.794Z,42.10
2022-08-24T17:46:37.309Z,42.20
2022-08-24T17:49:04.267Z,42.10
2022-08-24T17:51:31.086Z,42.20
2022-08-24T17:53:58.998Z,42.10
2022-08-24T17:56:27.257Z,42.10
2022-08-24T17:59:23.543Z,42.10
2022-08-24T18:01:54.986Z,41.90
2022-08-24T18:04:22.648Z,42.00
2022-08-24T18:06:49.869Z,42.00
2022-08-24T18:09:26.710Z,42.10
2022-08-24T18:11:53.598Z,42.10
2022-08-24T18:14:20.635Z,42.10
2022-08-24T18:16:54.049Z,42.10
2022-08-24T18:19:24.954Z,42.10
2022-08-24T18:21:51.968Z,42.10
2022-08-24T18:24:19.243Z,42.00
2022-08-24T18:26:47.886Z,42.00
2022-08-24T18:29:17.786Z,41.90
2022-08-24T18:31:47.889Z,41.80
2022-08-24T18:34:21.665Z,41.80
2022-08-24T18:36:48.984Z,41.90
2022-08-24T18:39:16.058Z,41.60
2022-08-24T18:41:44.356Z,41.60
2022-08-24T18:44:20.268Z,41.60
2022-08-24T18:46:47.982Z,41.70
2022-08-24T18:49:15.545Z,41.70
2022-08-24T18:51:42.959Z,41.80
2022-08-24T18:54:11.138Z,42.00
2022-08-24T18:56:38.097Z,41.80
2022-08-24T18:59:05.399Z,41.90
2022-08-24T19:01:52.704Z,41.60
2022-08-24T19:04:20.117Z,41.50
2022-08-24T19:06:52.725Z,41.60
2022-08-24T19:09:19.904Z,41.60
2022-08-24T19:11:46.754Z,41.40
2022-08-24T19:14:14.522Z,41.40
2022-08-24T19:16:41.439Z,41.20
2022-08-24T19:19:08.477Z,41.20
2022-08-24T19:21:36.858Z,41.00
2022-08-24T19:24:04.683Z,40.70
2022-08-24T19:26:33.054Z,40.70
2022-08-24T19:29:00.063Z,40.70
2022-08-24T19:31:28.279Z,40.60
2022-08-24T19:33:59.975Z,40.60
2022-08-24T19:36:31.912Z,40.60
2022-08-24T19:38:59.153Z,40.50
2022-08-24T19:41:36.671Z,40.50
2022-08-24T19:44:27.317Z,40.60
2022-08-24T19:46:57.714Z,40.60
2022-08-24T19:49:24.902Z,40.60
2022-08-24T19:51:52.320Z,40.60
2022-08-24T19:54:19.272Z,40.70
2022-08-24T19:56:46.208Z,40.80
2022-08-24T19:59:21.147Z,40.80
2022-08-24T20:01:48.039Z,40.70
2022-08-24T20:04:15.266Z,40.80
2022-08-24T20:06:42.822Z,40.80
2022-08-24T20:09:11.904Z,40.70
2022-08-24T20:11:42.957Z,40.70
2022-08-24T20:14:13.233Z,40.50
2022-08-24T20:16:44.248Z,40.50
2022-08-24T20:19:11.785Z,40.70
2022-08-24T20:21:38.991Z,40.80
2022-08-24T20:24:06.514Z,41.00
2022-08-24T20:26:36.804Z,41.10
2022-08-24T20:29:03.988Z,41.10
2022-08-24T20:31:33.655Z,41.00
2022-08-24T20:34:00.792Z,40.90
2022-08-24T20:36:30.529Z,41.00
2022-08-24T20:38:58.258Z,40.80
2022-08-24T20:41:27.481Z,41.10
2022-08-24T20:43:54.793Z,41.10
2022-08-24T20:46:21.710Z,41.40
2022-08-24T20:48:54.239Z,41.50
2022-08-24T20:51:23.118Z,41.50
2022-08-24T20:53:49.992Z,41.30
2022-08-24T20:56:21.116Z,41.40
2022-08-24T20:58:56.812Z,41.40
2022-08-24T21:01:25.052Z,41.20
2022-08-24T21:03:52.375Z,41.40
2022-08-24T21:06:19.765Z,41.20
2022-08-24T21:08:47.853Z,41.40
2022-08-24T21:11:15.285Z,41.40
2022-08-24T21:13:42.148Z,41.50
2022-08-24T21:16:13.151Z,41.40
2022-08-24T21:18:40.134Z,41.60
2022-08-24T21:21:06.998Z,41.60
2022-08-24T21:23:34.463Z,41.70
2022-08-24T21:26:02.940Z,41.70
2022-08-24T21:28:30.295Z,41.60
2022-08-24T21:30:57.217Z,41.60
2022-08-24T21:33:42.471Z,41.60
2022-08-24T21:36:09.264Z,41.70
2022-08-24T21:38:36.624Z,41.70
2022-08-24T21:41:06.035Z,41.70
2022-08-24T21:43:33.240Z,41.60
2022-08-24T21:46:00.916Z,41.50
2022-08-24T21:48:27.806Z,41.40
2022-08-24T21:50:54.614Z,41.40
2022-08-24T21:53:21.453Z,41.40
2022-08-24T21:55:55.018Z,41.40
2022-08-24T21:58:22.006Z,41.40
2022-08-24T22:00:49.056Z,41.20
2022-08-24T22:03:15.927Z,41.20
2022-08-24T22:05:42.895Z,41.30
2022-08-24T22:08:09.799Z,41.20
2022-08-24T22:10:36.716Z,41.40
2022-08-24T22:13:04.728Z,41.20
2022-08-24T22:15:33.263Z,41.20
2022-08-24T22:18:00.562Z,41.20
2022-08-24T22:20:27.571Z,41.20
2022-08-24T22:22:55.514Z,41.00
2022-08-24T22:25:22.455Z,40.90
2022-08-24T22:27:49.343Z,40.90
2022-08-24T22:30:17.572Z,41.10
2022-08-24T22:32:45.200Z,41.00
2022-08-24T22:35:12.180Z,41.00
2022-08-24T22:37:39.081Z,41.00
2022-08-24T22:40:06.777Z,41.10
2022-08-24T22:42:39.988Z,41.10
2022-08-24T22:45:07.370Z,41.10
2022-08-24T22:47:34.303Z,41.10
2022-08-24T22:50:01.172Z,41.10
2022-08-24T22:52:28.824Z,41.20
2022-08-24T22:54:57.292Z,41.40
2022-08-24T22:57:24.389Z,41.30
2022-08-24T22:59:53.789Z,41.20
2022-08-24T23:02:20.793Z,41.20
2022-08-24T23:04:50.990Z,41.20
2022-08-24T23:07:18.393Z,41.20
2022-08-24T23:09:45.821Z,41.20
2022-08-24T23:12:14.620Z,41.40
2022-08-24T23:14:42.008Z,41.60
2022-08-24T23:17:09.662Z,41.60
2022-08-24T23:19:55.148Z,41.40
2022-08-24T23:22:22.649Z,41.40
2022-08-24T23:24:49.675Z,41.30
2022-08-24T23:27:17.026Z,41.50
2022-08-24T23:29:44.783Z,41.40
2022-08-24T23:32:12.153Z,41.10
2022-08-24T23:34:39.096Z,41.20
2022-08-24T23:37:06.454Z,41.40
2022-08-24T23:39:33.475Z,41.50
2022-08-24T23:42:00.731Z,41.50
2022-08-24T23:44:28.911Z,41.60
2022-08-24T23:46:56.650Z,41.60
2022-08-24T23:49:24.244Z,41.20
2022-08-24T23:51:52.534Z,41.10
2022-08-24T23:54:20.492Z,41.30
2022-08-24T23:56:48.399Z,41.40
2022-08-24T23:59:19.853Z,41.20
